createdAt,value
2023-02-01T00:07:55.309Z,100826.47
2023-02-01T00:17:57.580Z,100838.50
2023-02-01T00:28:00.528Z,100823.97
2023-02-01T00:38:04.242Z,100822.53
2023-02-01T00:48:06.481Z,100797.47
2023-02-01T00:58:10.315Z,100808.53
2023-02-01T01:08:13.850Z,100806.53
2023-02-01T01:18:16.023Z,100806.31
2023-02-01T01:28:18.207Z,100814.53
2023-02-01T01:38:20.515Z,100793.22
2023-02-01T01:48:28.089Z,100792.19
2023-02-01T01:58:33.138Z,100772.56
2023-02-01T02:08:35.513Z,100763.22
2023-02-01T02:18:57.144Z,100761.72
2023-02-01T02:29:21.018Z,100760.38
2023-02-01T02:39:54.488Z,100748.69
2023-02-01T02:50:24.734Z,100748.50
2023-02-01T03:00:51.934Z,100737.00
2023-02-01T03:11:02.062Z,100729.56
2023-02-01T03:21:09.259Z,100702.44
2023-02-01T03:31:11.592Z,100677.13
2023-02-01T03:41:26.416Z,100689.59
2023-02-01T03:51:29.631Z,100693.75
2023-02-01T04:01:32.544Z,100658.16
2023-02-01T04:11:35.003Z,100667.03
2023-02-01T04:21:37.263Z,100667.56
2023-02-01T04:31:39.649Z,100660.09
2023-02-01T04:41:42.165Z,100664.09
2023-02-01T04:51:44.504Z,100663.41
2023-02-01T05:01:48.859Z,100672.84
2023-02-01T05:12:09.910Z,100677.91
2023-02-01T05:22:12.088Z,100659.50
2023-02-01T05:32:22.155Z,100684.06
2023-02-01T05:42:24.859Z,100685.75
2023-02-01T05:52:27.106Z,100665.84
2023-02-01T06:02:29.461Z,100674.31
2023-02-01T06:12:31.633Z,100653.16
2023-02-01T06:22:34.507Z,100667.84
2023-02-01T06:32:36.865Z,100671.78
2023-02-01T06:42:39.132Z,100679.84
2023-02-01T06:52:41.415Z,100686.28
2023-02-01T07:02:43.675Z,100678.22
2023-02-01T07:12:45.726Z,100694.91
2023-02-01T07:22:47.992Z,100704.09
2023-02-01T07:32:50.306Z,100703.56
2023-02-01T07:42:52.418Z,100695.53
2023-02-01T07:52:54.703Z,100719.72
2023-02-01T08:02:59.383Z,100719.19
2023-02-01T08:13:02.330Z,100720.13
2023-02-01T08:23:04.608Z,100739.47
2023-02-01T08:33:07.782Z,100751.19
2023-02-01T08:43:10.084Z,100751.69
2023-02-01T08:53:14.821Z,100741.72
2023-02-01T09:03:17.150Z,100758.16
2023-02-01T09:13:19.326Z,100750.31
2023-02-01T09:23:21.483Z,100739.63
2023-02-01T09:33:25.040Z,100716.13
2023-02-01T09:43:51.137Z,100724.41
2023-02-01T09:54:07.899Z,100731.66
2023-02-01T10:04:12.613Z,100725.03
2023-02-01T10:14:37.731Z,100714.97
2023-02-01T10:24:59.634Z,100717.88
2023-02-01T10:35:10.239Z,100718.50
2023-02-01T10:45:16.228Z,100718.56
2023-02-01T10:55:33.316Z,100706.28
2023-02-01T11:05:46.162Z,100686.31
2023-02-01T11:15:56.907Z,100678.28
2023-02-01T11:26:01.702Z,100676.25
2023-02-01T11:36:13.410Z,100657.22
2023-02-01T11:46:23.662Z,100618.47
2023-02-01T11:56:33.979Z,100631.88
2023-02-01T12:06:43.798Z,100613.31
2023-02-01T12:17:00.184Z,100626.50
2023-02-01T12:27:20.993Z,100623.44
2023-02-01T12:37:45.384Z,100599.72
2023-02-01T12:47:55.161Z,100567.69
2023-02-01T12:58:14.179Z,100564.22
2023-02-01T13:08:22.233Z,100566.28
2023-02-01T13:18:38.742Z,100569.63
2023-02-01T13:28:45.854Z,100563.81
2023-02-01T13:39:16.107Z,100557.31
2023-02-01T13:49:26.386Z,100558.16
2023-02-01T13:59:40.691Z,100564.25
2023-02-01T14:09:43.219Z,100566.31
2023-02-01T14:19:45.326Z,100554.00
2023-02-01T14:30:03.934Z,100560.41
2023-02-01T14:40:16.879Z,100581.53
2023-02-01T14:50:38.555Z,100591.63
2023-02-01T15:00:48.563Z,100593.00
2023-02-01T15:10:51.535Z,100599.91
2023-02-01T15:21:09.622Z,100610.97
2023-02-01T15:31:34.527Z,100619.78
2023-02-01T15:41:36.938Z,100616.66
2023-02-01T15:51:45.128Z,100602.84
2023-02-01T16:01:50.099Z,100589.44
2023-02-01T16:11:59.495Z,100589.84
2023-02-01T16:22:02.148Z,100595.44
2023-02-01T16:32:06.609Z,100608.69
2023-02-01T16:42:13.889Z,100597.25
2023-02-01T16:52:29.165Z,100629.56
2023-02-01T17:02:35.810Z,100592.09
2023-02-01T17:12:38.040Z,100711.06
2023-02-01T17:22:43.267Z,100709.41
2023-02-01T17:32:45.772Z,100725.59
2023-02-01T17:42:48.838Z,100707.75
2023-02-01T17:52:51.248Z,100714.59
2023-02-01T18:02:53.370Z,100711.53
2023-02-01T18:12:55.994Z,100686.28
2023-02-01T18:22:58.298Z,100724.88
2023-02-01T18:33:00.654Z,100784.53
2023-02-01T18:43:03.450Z,100757.59
2023-02-01T18:53:08.576Z,100744.81
2023-02-01T19:03:15.196Z,100726.41
2023-02-01T19:13:20.840Z,100750.97
2023-02-01T19:23:23.111Z,100744.53
2023-02-01T19:33:25.298Z,100727.34
2023-02-01T19:43:27.930Z,100739.47
2023-02-01T19:53:30.903Z,100751.47
2023-02-01T20:03:33.839Z,100757.06
2023-02-01T20:13:38.581Z,100752.03
2023-02-01T20:23:40.972Z,100753.44
2023-02-01T20:33:44.150Z,100750.97
2023-02-01T20:43:46.434Z,100754.28
2023-02-01T20:53:51.323Z,100768.81
2023-02-01T21:03:53.575Z,100795.81
2023-02-01T21:13:55.685Z,100768.50
2023-02-01T21:23:58.889Z,100776.59
2023-02-01T21:34:01.172Z,100842.13
2023-02-01T21:44:03.812Z,100840.09
2023-02-01T21:54:07.123Z,100820.59
2023-02-01T22:04:10.376Z,100835.28
2023-02-01T22:14:13.647Z,100854.44
2023-02-01T22:24:17.951Z,100858.47
2023-02-01T22:34:22.192Z,100861.31
2023-02-01T22:44:24.275Z,100858.53
2023-02-01T22:54:26.410Z,100848.25
2023-02-01T23:04:28.645Z,100897.09
2023-02-01T23:14:30.721Z,100895.13
2023-02-01T23:24:32.997Z,100888.44
2023-02-01T23:34:35.870Z,100906.81
2023-02-01T23:44:38.007Z,100893.72
2023-02-01T23:54:40.185Z,100885.06
